CheckWX is a tool to help pilots better visualize weather data.  It is not intended as a substitute for an official pre-flight weather briefing.

12:59:38 UTC

TDPD METAR
Melville Hall Airport
Marigot, Dominica
Current

60 mins ago

TDPD 161200Z 11009KT 9999 SCT017 28/24 Q1017
Observed
Jul-16 @ 12:00 UTC
Wind
  • 110° at 9 KTS
Visibility
10,000+ meters
Flight Rules
VFR
Cloud Levels
  • Scattered at 1,700' AGL
Temperature
28°C / 82°F
Dewpoint
24°C / 75°F
Heat Index
32°C / 89°F
Humidity
79%
Altimeter
30.03" Hg
Pressure
1016.92 hPa
Previous

2 hours ago

TDPD 161100Z 08004KT 9999 FEW015CB SCT017 26/24 Q1017
Observed
Jul-16 @ 11:00 UTC
Wind
  • 080° at 4 KTS
Visibility
10,000+ meters
Flight Rules
VFR
Cloud Levels
  • Few at 1,500' AGL
  • Scattered at 1,700' AGL
Temperature
26°C / 79°F
Dewpoint
24°C / 75°F
Humidity
89%
Altimeter
30.03" Hg
Pressure
1016.92 hPa
Previous

3 hours ago

TDPD 161000Z 27002KT 9999 VCSH FEW015CB BKN016 24/23 Q1016
Observed
Jul-16 @ 10:00 UTC
Wind
  • 270° at 2 KTS
Visibility
10,000+ meters
Flight Rules
MVFR
Cloud Levels
  • Few at 1,500' AGL
  • Broken at 1,600' AGL
Temperature
24°C / 75°F
Dewpoint
23°C / 73°F
Humidity
94%
Altimeter
30" Hg
Pressure
1015.92 hPa